Time;durP1;ratioP1;P1;durP2;ratioP2;P2;SDS_P1;SDS_P2;PMS_P1;PMS_P2;Temp;Humidity;BMP_temperature;BMP_pressure;BME280_temperature;BME280_humidity;BME280_pressure;Samples;Min_cycle;Max_cycle;Signal;HPM_P1;HPM_P2
2022/07/22 00:00:56;;;;;;;7.17;6.47;;;;;;;;;;4946894;28;20434;-56
2022/07/22 00:03:29;;;;;;;10.13;6.20;;;;;;;;;;4933063;28;20457;-56
2022/07/22 00:05:56;;;;;;;7.90;7.10;;;;;;;;;;4943183;28;20434;-56
2022/07/22 00:08:28;;;;;;;6.80;6.20;;;;;;;;;;4935605;28;20496;-56
2022/07/22 00:10:54;;;;;;;9.00;6.57;;;;;;;;;;4945415;28;20198;-55
2022/07/22 00:13:34;;;;;;;11.17;7.07;;;;;;;;;;4938681;28;20783;-56
2022/07/22 00:16:02;;;;;;;7.63;6.47;;;;;;;;;;4959544;28;20434;-57
2022/07/22 00:18:29;;;;;;;9.00;6.67;;;;;;;;;;4939499;28;20470;-57
2022/07/22 00:20:55;;;;;;;6.97;6.23;;;;;;;;;;4949986;28;20451;-56
2022/07/22 00:23:29;;;;;;;8.20;6.43;;;;;;;;;;4933984;28;20447;-56
2022/07/22 00:25:55;;;;;;;9.00;6.00;;;;;;;;;;4942848;28;20179;-57
2022/07/22 00:28:40;;;;;;;7.13;6.27;;;;;;;;;;4933445;28;21300;-56
2022/07/22 00:31:07;;;;;;;7.83;7.03;;;;;;;;;;4963776;28;20439;-55
2022/07/22 00:33:33;;;;;;;10.10;6.90;;;;;;;;;;4931772;28;20482;-56
2022/07/22 00:35:59;;;;;;;9.00;6.03;;;;;;;;;;4931156;28;20438;-57
2022/07/22 00:38:25;;;;;;;8.80;7.10;;;;;;;;;;4944420;28;20963;-56
2022/07/22 00:40:51;;;;;;;9.93;6.77;;;;;;;;;;4938515;28;20450;-56
2022/07/22 00:43:17;;;;;;;6.63;5.97;;;;;;;;;;4944114;28;20500;-56
2022/07/22 00:45:43;;;;;;;6.67;6.07;;;;;;;;;;4931277;28;20175;-56
2022/07/22 00:48:09;;;;;;;7.30;6.60;;;;;;;;;;4948239;28;20481;-57
2022/07/22 00:50:35;;;;;;;10.33;6.10;;;;;;;;;;4939596;28;20939;-57
2022/07/22 00:53:01;;;;;;;9.10;6.53;;;;;;;;;;4947007;28;20477;-56
2022/07/22 00:55:27;;;;;;;7.50;6.83;;;;;;;;;;4930736;28;21146;-57
2022/07/22 00:57:53;;;;;;;8.33;6.53;;;;;;;;;;4941916;28;20940;-57
2022/07/22 01:00:20;;;;;;;7.60;6.03;;;;;;;;;;4933101;28;20482;-57
2022/07/22 01:02:46;;;;;;;7.67;6.60;;;;;;;;;;4944753;28;20971;-57
2022/07/22 01:05:12;;;;;;;6.90;6.20;;;;;;;;;;4939389;28;21047;-57
2022/07/22 01:07:38;;;;;;;8.53;7.70;;;;;;;;;;4945771;28;20447;-55
2022/07/22 01:10:14;;;;;;;7.60;6.90;;;;;;;;;;4936950;28;20438;-56
2022/07/22 01:13:00;;;;;;;8.00;6.37;;;;;;;;;;4948585;28;20467;-57
2022/07/22 01:15:26;;;;;;;9.60;6.73;;;;;;;;;;4953938;28;20459;-56
2022/07/22 01:17:52;;;;;;;10.43;6.63;;;;;;;;;;4947392;28;20757;-57
2022/07/22 01:20:19;;;;;;;7.17;6.50;;;;;;;;;;4941584;28;20227;-57
2022/07/22 01:22:45;;;;;;;6.67;6.07;;;;;;;;;;4949991;28;20435;-57
2022/07/22 01:25:11;;;;;;;7.50;6.03;;;;;;;;;;4931166;28;20469;-56
2022/07/22 01:27:37;;;;;;;7.63;6.77;;;;;;;;;;4940912;28;20469;-56
2022/07/22 01:30:04;;;;;;;9.00;6.17;;;;;;;;;;4938412;28;20470;-57
2022/07/22 01:32:30;;;;;;;7.40;6.60;;;;;;;;;;4943279;28;20478;-57
2022/07/22 01:34:56;;;;;;;7.77;7.03;;;;;;;;;;4928042;28;20517;-57
2022/07/22 01:37:22;;;;;;;7.57;6.30;;;;;;;;;;4943067;28;20452;-58
2022/07/22 01:39:48;;;;;;;8.60;6.80;;;;;;;;;;4923280;28;21488;-56
2022/07/22 01:42:14;;;;;;;7.80;7.00;;;;;;;;;;4943832;28;20451;-57
2022/07/22 01:44:40;;;;;;;7.80;7.00;;;;;;;;;;4921259;28;20459;-56
2022/07/22 01:47:07;;;;;;;7.57;6.87;;;;;;;;;;4942088;28;20971;-57
2022/07/22 01:49:34;;;;;;;7.70;6.60;;;;;;;;;;4898026;28;20996;-58
2022/07/22 01:52:00;;;;;;;8.23;7.10;;;;;;;;;;4946542;28;22358;-57
2022/07/22 01:54:26;;;;;;;8.30;6.60;;;;;;;;;;4918760;28;21074;-57
2022/07/22 01:56:52;;;;;;;8.13;7.13;;;;;;;;;;4948095;28;20788;-57
2022/07/22 01:59:18;;;;;;;7.13;6.43;;;;;;;;;;4925132;28;20482;-57
2022/07/22 02:01:46;;;;;;;7.07;6.13;;;;;;;;;;4942678;28;20443;-57
2022/07/22 02:04:13;;;;;;;6.83;6.13;;;;;;;;;;4920853;28;20467;-57
2022/07/22 02:06:39;;;;;;;7.70;6.60;;;;;;;;;;4943892;28;20981;-57
2022/07/22 02:09:05;;;;;;;8.57;7.67;;;;;;;;;;4938827;28;20479;-57
2022/07/22 02:11:31;;;;;;;9.60;7.50;;;;;;;;;;4959068;28;20533;-57
2022/07/22 02:13:57;;;;;;;7.40;6.70;;;;;;;;;;4939520;28;20570;-56
2022/07/22 02:16:24;;;;;;;10.17;8.13;;;;;;;;;;4928933;28;20191;-57
2022/07/22 02:18:50;;;;;;;7.53;6.83;;;;;;;;;;4943573;28;20482;-57
2022/07/22 02:21:16;;;;;;;8.60;7.00;;;;;;;;;;4899721;28;20947;-57
2022/07/22 02:23:42;;;;;;;8.87;7.40;;;;;;;;;;4947721;28;20462;-57
2022/07/22 02:26:08;;;;;;;7.07;6.07;;;;;;;;;;4919728;28;20530;-57
2022/07/22 02:28:35;;;;;;;8.97;7.80;;;;;;;;;;4948779;28;21065;-56
2022/07/22 02:31:01;;;;;;;9.00;7.33;;;;;;;;;;4944782;28;20454;-55
2022/07/22 02:33:29;;;;;;;7.80;6.80;;;;;;;;;;4948044;28;20446;-56
2022/07/22 02:35:55;;;;;;;7.53;6.70;;;;;;;;;;4926312;28;20561;-56
2022/07/22 02:38:21;;;;;;;7.93;7.13;;;;;;;;;;4947237;28;20442;-56
2022/07/22 02:40:47;;;;;;;10.00;7.80;;;;;;;;;;4940662;28;21208;-56
2022/07/22 02:43:13;;;;;;;7.93;7.23;;;;;;;;;;4938411;28;20436;-56
2022/07/22 02:45:39;;;;;;;9.67;7.83;;;;;;;;;;4926478;28;20526;-57
2022/07/22 02:48:05;;;;;;;8.47;7.57;;;;;;;;;;4940755;28;20434;-56
2022/07/22 02:50:36;;;;;;;8.10;7.27;;;;;;;;;;4917320;28;20910;-57
2022/07/22 02:53:03;;;;;;;10.27;8.17;;;;;;;;;;4936054;28;20470;-57
2022/07/22 02:55:29;;;;;;;8.47;7.30;;;;;;;;;;4936743;28;20438;-55
2022/07/22 02:57:55;;;;;;;8.50;7.40;;;;;;;;;;4940786;28;20574;-55
2022/07/22 03:00:21;;;;;;;8.10;7.20;;;;;;;;;;4939637;28;20624;-56
2022/07/22 03:02:46;;;;;;;8.17;7.17;;;;;;;;;;4938063;28;20447;-57
2022/07/22 03:05:13;;;;;;;8.23;7.53;;;;;;;;;;4937834;28;20199;-58
2022/07/22 03:07:39;;;;;;;10.30;7.17;;;;;;;;;;4931925;28;20475;-56
2022/07/22 03:10:05;;;;;;;7.93;7.23;;;;;;;;;;4945589;28;20478;-61
2022/07/22 03:12:31;;;;;;;9.30;8.40;;;;;;;;;;4944221;28;20462;-56
2022/07/22 03:14:57;;;;;;;11.00;8.43;;;;;;;;;;4945106;28;20551;-57
2022/07/22 03:17:24;;;;;;;9.40;8.20;;;;;;;;;;4943448;28;20435;-57
2022/07/22 03:19:50;;;;;;;13.43;9.63;;;;;;;;;;4949010;28;20487;-56
2022/07/22 03:22:16;;;;;;;8.70;7.77;;;;;;;;;;4922482;28;21058;-57
2022/07/22 03:24:42;;;;;;;8.97;8.07;;;;;;;;;;4941673;28;21073;-58
2022/07/22 03:27:08;;;;;;;11.10;8.53;;;;;;;;;;4898824;28;20439;-56
2022/07/22 03:29:34;;;;;;;10.80;7.60;;;;;;;;;;4947778;28;20497;-58
2022/07/22 03:32:00;;;;;;;9.97;8.97;;;;;;;;;;4937714;28;20442;-56
2022/07/22 03:34:26;;;;;;;10.37;8.60;;;;;;;;;;4938709;28;21202;-56
2022/07/22 03:36:53;;;;;;;11.07;9.20;;;;;;;;;;4918477;28;20545;-56
2022/07/22 03:39:19;;;;;;;8.83;7.93;;;;;;;;;;4942323;28;20541;-57
2022/07/22 03:41:47;;;;;;;11.40;10.27;;;;;;;;;;4941771;28;20431;-56
2022/07/22 03:44:13;;;;;;;9.73;8.77;;;;;;;;;;4951268;28;20446;-56
2022/07/22 03:46:41;;;;;;;11.07;9.57;;;;;;;;;;4940126;28;20446;-57
2022/07/22 03:49:08;;;;;;;11.93;8.50;;;;;;;;;;4950807;28;20430;-56
2022/07/22 03:51:37;;;;;;;10.23;8.80;;;;;;;;;;4940851;28;20525;-55
2022/07/22 03:54:04;;;;;;;12.10;8.90;;;;;;;;;;4946909;28;20442;-59
2022/07/22 03:56:30;;;;;;;9.33;8.43;;;;;;;;;;4900784;28;20545;-58
2022/07/22 03:58:56;;;;;;;12.30;10.77;;;;;;;;;;4946303;28;20513;-58
2022/07/22 04:01:22;;;;;;;10.03;9.03;;;;;;;;;;4937992;28;20537;-57
2022/07/22 04:03:48;;;;;;;10.57;9.43;;;;;;;;;;4945702;28;20446;-56
2022/07/22 04:06:14;;;;;;;10.87;9.40;;;;;;;;;;4937084;28;20529;-57
2022/07/22 04:08:40;;;;;;;10.20;8.47;;;;;;;;;;4950479;28;20931;-57
2022/07/22 04:11:06;;;;;;;13.20;8.77;;;;;;;;;;4927791;28;20451;-56
2022/07/22 04:13:32;;;;;;;10.77;9.30;;;;;;;;;;4945126;28;20480;-57
2022/07/22 04:15:58;;;;;;;10.00;9.00;;;;;;;;;;4915422;28;20434;-59
2022/07/22 04:18:24;;;;;;;9.80;8.80;;;;;;;;;;4946227;28;20447;-57
2022/07/22 04:20:50;;;;;;;11.60;8.93;;;;;;;;;;4939514;28;20450;-57
2022/07/22 04:23:16;;;;;;;10.23;9.13;;;;;;;;;;4950490;28;20197;-56
2022/07/22 04:25:50;;;;;;;11.37;9.20;;;;;;;;;;4936140;28;20537;-56
2022/07/22 04:28:16;;;;;;;12.80;9.90;;;;;;;;;;4941738;28;20482;-57
2022/07/22 04:30:47;;;;;;;10.00;8.20;;;;;;;;;;4922314;28;20490;-55
2022/07/22 04:33:13;;;;;;;10.50;9.07;;;;;;;;;;4887735;28;20462;-56
2022/07/22 04:35:39;;;;;;;10.77;9.67;;;;;;;;;;4932462;28;20867;-57
2022/07/22 04:38:06;;;;;;;11.00;9.90;;;;;;;;;;4936563;28;21217;-56
2022/07/22 04:40:32;;;;;;;10.50;9.27;;;;;;;;;;4929159;28;20474;-57
2022/07/22 04:42:58;;;;;;;10.77;9.77;;;;;;;;;;4938980;28;20438;-57
2022/07/22 04:45:24;;;;;;;9.90;8.90;;;;;;;;;;4919726;28;21510;-57
2022/07/22 04:47:50;;;;;;;11.07;9.80;;;;;;;;;;4937627;28;21027;-56
2022/07/22 04:50:16;;;;;;;13.53;9.33;;;;;;;;;;4938942;28;20545;-57
2022/07/22 04:52:43;;;;;;;13.07;10.03;;;;;;;;;;4928845;28;20191;-56
2022/07/22 04:55:09;;;;;;;9.77;8.77;;;;;;;;;;4936500;28;20497;-57
2022/07/22 04:57:35;;;;;;;12.20;8.50;;;;;;;;;;4932700;28;20440;-56
2022/07/22 05:00:01;;;;;;;10.73;9.63;;;;;;;;;;4946370;28;20906;-57
2022/07/22 05:02:27;;;;;;;11.23;10.03;;;;;;;;;;4944976;28;21983;-56
2022/07/22 05:04:53;;;;;;;11.07;9.97;;;;;;;;;;4950215;28;20584;-57
2022/07/22 05:07:19;;;;;;;13.57;10.77;;;;;;;;;;4893134;28;20467;-56
2022/07/22 05:09:45;;;;;;;8.87;7.97;;;;;;;;;;4933597;28;20463;-57
2022/07/22 05:12:11;;;;;;;12.10;10.87;;;;;;;;;;4938643;28;20533;-57
2022/07/22 05:14:38;;;;;;;10.30;9.20;;;;;;;;;;4923089;28;20459;-55
2022/07/22 05:17:04;;;;;;;9.30;8.13;;;;;;;;;;4939644;28;20458;-57
2022/07/22 05:19:30;;;;;;;16.70;9.47;;;;;;;;;;4935124;28;20982;-57
2022/07/22 05:21:56;;;;;;;12.03;9.73;;;;;;;;;;4941213;28;20498;-56
2022/07/22 05:24:22;;;;;;;11.40;10.27;;;;;;;;;;4931170;28;21227;-57
2022/07/22 05:26:48;;;;;;;11.10;9.20;;;;;;;;;;4929888;28;20956;-57
2022/07/22 05:29:14;;;;;;;10.80;9.67;;;;;;;;;;4939780;28;20449;-57
2022/07/22 05:31:40;;;;;;;10.30;9.30;;;;;;;;;;4937832;28;20179;-58
2022/07/22 05:34:14;;;;;;;11.00;9.30;;;;;;;;;;4943356;28;20443;-62
2022/07/22 05:36:42;;;;;;;11.10;9.83;;;;;;;;;;4931014;28;20458;-57
2022/07/22 05:39:08;;;;;;;11.57;10.10;;;;;;;;;;4958418;28;20557;-57
2022/07/22 05:41:37;;;;;;;11.33;10.23;;;;;;;;;;4939588;28;20793;-58
2022/07/22 05:44:04;;;;;;;11.40;10.03;;;;;;;;;;4947405;28;20446;-57
2022/07/22 05:46:30;;;;;;;10.53;9.10;;;;;;;;;;4935189;28;20477;-56
2022/07/22 05:48:56;;;;;;;10.47;9.33;;;;;;;;;;4947499;28;20447;-56
2022/07/22 05:51:22;;;;;;;14.03;9.13;;;;;;;;;;4950776;28;20457;-57
2022/07/22 05:53:48;;;;;;;12.80;10.10;;;;;;;;;;4947265;28;20526;-57
2022/07/22 05:56:16;;;;;;;11.27;10.13;;;;;;;;;;4943944;28;20458;-56
2022/07/22 05:58:51;;;;;;;12.70;10.47;;;;;;;;;;4962168;28;20843;-58
2022/07/22 06:01:26;;;;;;;13.93;9.93;;;;;;;;;;4940784;28;20911;-58
2022/07/22 06:04:08;;;;;;;11.77;10.33;;;;;;;;;;4943423;28;20477;-56
2022/07/22 06:06:42;;;;;;;10.97;9.70;;;;;;;;;;4924133;28;20442;-58
2022/07/22 06:09:32;;;;;;;10.53;9.43;;;;;;;;;;4942436;28;20553;-58
2022/07/22 06:12:00;;;;;;;14.00;9.90;;;;;;;;;;4944068;28;20826;-57
2022/07/22 06:14:28;;;;;;;10.87;9.80;;;;;;;;;;4943385;28;20431;-57
2022/07/22 06:16:54;;;;;;;13.03;10.33;;;;;;;;;;4936133;28;20462;-57
2022/07/22 06:19:20;;;;;;;10.47;9.47;;;;;;;;;;4941380;28;20496;-57
2022/07/22 06:21:54;;;;;;;13.67;10.77;;;;;;;;;;4930721;28;20547;-57
2022/07/22 06:24:26;;;;;;;13.07;9.83;;;;;;;;;;4943117;28;20436;-57
2022/07/22 06:27:06;;;;;;;11.97;10.77;;;;;;;;;;4927082;28;20505;-57
2022/07/22 06:29:37;;;;;;;10.07;9.10;;;;;;;;;;4939750;28;20438;-58
2022/07/22 06:32:03;;;;;;;11.57;10.37;;;;;;;;;;4942093;28;20971;-57
2022/07/22 06:34:56;;;;;;;13.63;10.70;;;;;;;;;;4937060;28;20447;-58
2022/07/22 06:37:23;;;;;;;11.53;10.43;;;;;;;;;;4951169;28;20463;-56
2022/07/22 06:39:49;;;;;;;11.80;9.87;;;;;;;;;;4948339;28;20486;-57
2022/07/22 06:42:35;;;;;;;10.97;9.87;;;;;;;;;;4944550;28;21218;-59
2022/07/22 06:45:04;;;;;;;11.40;9.70;;;;;;;;;;4945310;28;20191;-59
2022/07/22 06:47:42;;;;;;;13.87;12.47;;;;;;;;;;4942827;28;20462;-58
2022/07/22 06:50:11;;;;;;;11.30;10.13;;;;;;;;;;4955961;28;21022;-58
2022/07/22 06:52:57;;;;;;;14.20;12.77;;;;;;;;;;4938112;28;20458;-58
2022/07/22 06:55:27;;;;;;;12.90;11.60;;;;;;;;;;4937496;28;20554;-57
2022/07/22 06:58:32;;;;;;;15.20;11.93;;;;;;;;;;4937866;28;20518;-59
2022/07/22 07:01:05;;;;;;;13.63;11.97;;;;;;;;;;4957265;28;20493;-58
2022/07/22 07:03:38;;;;;;;12.57;11.10;;;;;;;;;;4931925;28;20454;-58
2022/07/22 07:06:07;;;;;;;12.07;10.97;;;;;;;;;;4940145;28;20999;-57
2022/07/22 07:08:33;;;;;;;10.83;9.73;;;;;;;;;;4926031;28;20451;-56
2022/07/22 07:10:59;;;;;;;11.40;10.30;;;;;;;;;;4937920;28;20446;-57
2022/07/22 07:13:32;;;;;;;12.23;10.33;;;;;;;;;;4933805;28;20988;-58
2022/07/22 07:15:58;;;;;;;13.40;11.50;;;;;;;;;;4920800;28;20459;-57
2022/07/22 07:18:24;;;;;;;13.10;11.90;;;;;;;;;;4936616;28;20498;-56
2022/07/22 07:20:50;;;;;;;12.03;10.93;;;;;;;;;;4940832;28;20473;-57
2022/07/22 07:23:27;;;;;;;12.13;10.53;;;;;;;;;;4949939;28;20446;-59
2022/07/22 07:26:00;;;;;;;12.70;11.00;;;;;;;;;;4919460;28;20458;-57
2022/07/22 07:28:26;;;;;;;11.40;10.30;;;;;;;;;;4944859;28;20434;-57
2022/07/22 07:30:54;;;;;;;12.23;11.03;;;;;;;;;;4930973;28;20589;-57
2022/07/22 07:33:21;;;;;;;15.80;11.20;;;;;;;;;;4943880;28;20526;-58
2022/07/22 07:35:47;;;;;;;14.27;11.90;;;;;;;;;;4922632;28;20450;-57
2022/07/22 07:38:13;;;;;;;12.80;11.50;;;;;;;;;;4941420;28;20443;-57
2022/07/22 07:40:39;;;;;;;19.13;11.87;;;;;;;;;;4939202;28;20478;-57
2022/07/22 07:43:05;;;;;;;12.73;11.33;;;;;;;;;;4945000;28;20443;-57
2022/07/22 07:45:31;;;;;;;12.70;11.17;;;;;;;;;;4900340;28;20461;-57
2022/07/22 07:47:57;;;;;;;11.60;10.50;;;;;;;;;;4947075;28;20529;-57
2022/07/22 07:50:23;;;;;;;12.43;11.07;;;;;;;;;;4938436;28;20451;-57
2022/07/22 07:52:49;;;;;;;15.53;11.30;;;;;;;;;;4947130;28;20929;-58
2022/07/22 07:55:15;;;;;;;11.60;10.40;;;;;;;;;;4928912;28;21322;-58
2022/07/22 07:57:41;;;;;;;12.30;11.00;;;;;;;;;;4955049;28;20545;-57
2022/07/22 08:00:17;;;;;;;11.90;10.70;;;;;;;;;;4957116;28;20261;-58
2022/07/22 08:02:59;;;;;;;13.20;10.80;;;;;;;;;;4947606;28;20449;-57
2022/07/22 08:05:28;;;;;;;12.97;11.60;;;;;;;;;;4940165;28;20521;-58
2022/07/22 08:08:09;;;;;;;11.70;10.47;;;;;;;;;;4937771;28;20556;-57
2022/07/22 08:10:35;;;;;;;13.53;12.13;;;;;;;;;;4938802;28;20550;-57
2022/07/22 08:13:37;;;;;;;14.90;12.03;;;;;;;;;;4950177;28;20538;-57
2022/07/22 08:16:06;;;;;;;12.53;11.33;;;;;;;;;;4945351;28;20470;-59
2022/07/22 08:18:45;;;;;;;11.40;10.20;;;;;;;;;;4932132;28;20439;-58
2022/07/22 08:21:14;;;;;;;10.70;9.70;;;;;;;;;;4949086;28;20458;-57
2022/07/22 08:23:43;;;;;;;14.47;11.60;;;;;;;;;;4946815;28;20435;-58
2022/07/22 08:26:10;;;;;;;14.40;10.47;;;;;;;;;;4946520;28;20447;-58
2022/07/22 08:28:38;;;;;;;14.00;10.77;;;;;;;;;;4931590;28;20527;-58
2022/07/22 08:31:04;;;;;;;12.37;11.17;;;;;;;;;;4946517;28;20494;-58
2022/07/22 08:33:30;;;;;;;17.57;10.63;;;;;;;;;;4928104;28;20454;-56
2022/07/22 08:35:56;;;;;;;10.37;9.37;;;;;;;;;;4944034;28;20442;-58
2022/07/22 08:38:22;;;;;;;11.63;9.87;;;;;;;;;;4925741;28;20446;-57
2022/07/22 08:40:48;;;;;;;11.47;10.23;;;;;;;;;;4949822;28;20486;-57
2022/07/22 08:43:14;;;;;;;10.83;9.73;;;;;;;;;;4929355;28;20522;-58
2022/07/22 08:45:41;;;;;;;11.13;10.03;;;;;;;;;;4948509;28;20533;-57
2022/07/22 08:48:08;;;;;;;13.67;11.73;;;;;;;;;;4928548;28;20481;-58
2022/07/22 08:50:33;;;;;;;10.33;9.33;;;;;;;;;;4943031;28;20447;-58
2022/07/22 08:53:03;;;;;;;12.30;11.10;;;;;;;;;;4918935;28;20445;-57
2022/07/22 08:55:29;;;;;;;10.83;9.73;;;;;;;;;;4933062;28;21158;-59
2022/07/22 08:57:55;;;;;;;12.23;10.47;;;;;;;;;;4945146;28;20437;-58
2022/07/22 09:00:21;;;;;;;11.07;10.00;;;;;;;;;;4930483;28;20223;-58
2022/07/22 09:02:47;;;;;;;10.47;9.57;;;;;;;;;;4948773;28;20434;-58
2022/07/22 09:05:14;;;;;;;12.57;10.30;;;;;;;;;;4933171;28;20873;-58
2022/07/22 09:07:41;;;;;;;11.73;10.53;;;;;;;;;;4935236;28;20449;-57
2022/07/22 09:10:08;;;;;;;11.43;10.33;;;;;;;;;;4949098;28;20438;-58
2022/07/22 09:12:34;;;;;;;10.40;9.50;;;;;;;;;;4933401;28;20449;-57
2022/07/22 09:15:01;;;;;;;10.23;9.23;;;;;;;;;;4948543;28;20466;-58
2022/07/22 09:17:28;;;;;;;12.90;10.20;;;;;;;;;;4924266;28;20470;-57
2022/07/22 09:19:54;;;;;;;11.80;10.53;;;;;;;;;;4946438;28;20482;-57
2022/07/22 09:22:40;;;;;;;10.97;9.93;;;;;;;;;;4918854;28;21888;-58
2022/07/22 09:25:21;;;;;;;10.73;9.63;;;;;;;;;;4946541;28;20439;-58
2022/07/22 09:27:47;;;;;;;10.67;9.70;;;;;;;;;;4904200;28;20450;-57
2022/07/22 09:30:24;;;;;;;10.13;9.13;;;;;;;;;;4944158;28;20538;-62
2022/07/22 09:32:50;;;;;;;9.97;8.87;;;;;;;;;;4927936;28;20440;-58
2022/07/22 09:35:16;;;;;;;14.00;10.63;;;;;;;;;;4947203;28;20462;-58
2022/07/22 09:37:52;;;;;;;11.13;9.90;;;;;;;;;;4914236;28;20848;-58
2022/07/22 09:40:19;;;;;;;10.47;9.47;;;;;;;;;;4944217;28;20505;-57
2022/07/22 09:42:46;;;;;;;10.87;9.73;;;;;;;;;;4941512;28;20876;-58
2022/07/22 09:45:12;;;;;;;13.03;9.90;;;;;;;;;;4947818;28;20503;-56
2022/07/22 09:47:38;;;;;;;12.07;10.23;;;;;;;;;;4904131;28;20527;-58
2022/07/22 09:50:04;;;;;;;10.57;9.07;;;;;;;;;;4946791;28;20446;-58
2022/07/22 09:52:30;;;;;;;12.03;9.50;;;;;;;;;;4944124;28;20192;-56
2022/07/22 09:54:56;;;;;;;11.00;9.93;;;;;;;;;;4942616;28;20442;-57
2022/07/22 09:57:22;;;;;;;10.33;9.33;;;;;;;;;;4904709;28;21169;-59
2022/07/22 09:59:48;;;;;;;13.80;10.67;;;;;;;;;;4952006;28;20896;-58
2022/07/22 10:02:14;;;;;;;12.13;10.10;;;;;;;;;;4940961;28;20573;-58
2022/07/22 10:04:40;;;;;;;12.70;10.73;;;;;;;;;;4947388;28;20179;-58
2022/07/22 10:07:07;;;;;;;14.23;9.87;;;;;;;;;;4923996;28;20859;-58
2022/07/22 10:09:47;;;;;;;10.23;9.07;;;;;;;;;;4945127;28;20462;-58
2022/07/22 10:12:15;;;;;;;10.37;9.30;;;;;;;;;;4936040;28;21128;-58
2022/07/22 10:14:45;;;;;;;10.13;9.13;;;;;;;;;;4947965;28;20450;-59
2022/07/22 10:17:20;;;;;;;10.47;9.47;;;;;;;;;;4908775;28;20442;-58
2022/07/22 10:19:47;;;;;;;9.80;8.40;;;;;;;;;;4959834;28;20490;-57
2022/07/22 10:22:33;;;;;;;10.37;9.47;;;;;;;;;;4943628;28;20445;-58
2022/07/22 10:25:01;;;;;;;10.63;9.63;;;;;;;;;;4946948;28;20429;-58
2022/07/22 10:30:45;;;;;;;9.53;8.63;;;;;;;;;;4933638;28;20446;-57
2022/07/22 10:33:21;;;;;;;12.00;10.80;;;;;;;;;;4943608;28;20605;-58
2022/07/22 10:35:51;;;;;;;10.33;9.20;;;;;;;;;;4931767;28;20427;-58
2022/07/22 10:38:21;;;;;;;9.13;8.33;;;;;;;;;;4946407;28;20470;-58
2022/07/22 10:40:54;;;;;;;10.90;8.53;;;;;;;;;;4934701;28;20522;-58
2022/07/22 10:43:21;;;;;;;11.63;8.60;;;;;;;;;;4948594;28;20443;-58
2022/07/22 10:45:51;;;;;;;10.30;9.23;;;;;;;;;;4937614;28;20434;-59
2022/07/22 10:48:21;;;;;;;10.73;9.80;;;;;;;;;;4948212;28;21285;-58
2022/07/22 10:50:49;;;;;;;13.17;9.20;;;;;;;;;;4933092;28;20438;-58
2022/07/22 10:53:22;;;;;;;12.20;9.80;;;;;;;;;;4947027;28;20486;-58
2022/07/22 10:56:00;;;;;;;10.20;9.13;;;;;;;;;;4919659;28;20451;-57
2022/07/22 10:58:33;;;;;;;10.43;8.63;;;;;;;;;;4952722;28;20449;-58
2022/07/22 11:01:01;;;;;;;10.60;9.67;;;;;;;;;;4927504;28;20455;-57
2022/07/22 11:03:37;;;;;;;10.27;9.27;;;;;;;;;;4960305;28;20538;-58
2022/07/22 11:06:25;;;;;;;10.30;9.30;;;;;;;;;;4926745;28;20921;-58
2022/07/22 11:08:52;;;;;;;9.90;8.90;;;;;;;;;;4965461;28;20451;-57
2022/07/22 11:11:19;;;;;;;10.73;8.43;;;;;;;;;;4936952;28;20525;-57
2022/07/22 11:13:45;;;;;;;10.03;9.03;;;;;;;;;;4951630;28;20439;-57
2022/07/22 11:16:15;;;;;;;10.30;9.20;;;;;;;;;;4939022;28;20450;-58
2022/07/22 11:18:45;;;;;;;10.00;9.10;;;;;;;;;;4950919;28;20527;-56
2022/07/22 11:21:24;;;;;;;10.47;9.37;;;;;;;;;;4943395;28;20453;-58
2022/07/22 11:23:54;;;;;;;10.07;9.07;;;;;;;;;;4945293;28;20447;-57
2022/07/22 11:26:24;;;;;;;10.50;9.40;;;;;;;;;;4939026;28;20440;-57
2022/07/22 11:28:50;;;;;;;10.17;8.53;;;;;;;;;;4946741;28;20450;-57
2022/07/22 11:31:18;;;;;;;9.87;8.83;;;;;;;;;;4912334;28;20936;-57
2022/07/22 11:33:44;;;;;;;10.87;8.53;;;;;;;;;;4944902;28;20876;-57
2022/07/22 11:36:25;;;;;;;10.20;9.13;;;;;;;;;;4940145;28;20467;-57
2022/07/22 11:39:14;;;;;;;9.07;8.37;;;;;;;;;;4935485;28;20529;-57
2022/07/22 11:41:41;;;;;;;8.70;8.00;;;;;;;;;;4940435;28;20442;-59
2022/07/22 11:44:09;;;;;;;8.83;8.10;;;;;;;;;;4916788;28;20454;-58
2022/07/22 11:46:40;;;;;;;8.37;7.57;;;;;;;;;;4935013;28;20461;-60
2022/07/22 11:49:08;;;;;;;9.57;8.57;;;;;;;;;;4944470;28;20431;-58
2022/07/22 11:51:37;;;;;;;8.93;7.93;;;;;;;;;;4936018;28;20446;-58
2022/07/22 11:54:26;;;;;;;10.03;7.00;;;;;;;;;;4944032;28;20441;-60
2022/07/22 11:57:06;;;;;;;8.40;7.53;;;;;;;;;;4916818;28;20480;-59
2022/07/22 12:02:45;;;;;;;7.93;7.27;;;;;;;;;;4934989;28;20486;-60
2022/07/22 12:08:17;;;;;;;7.80;7.20;;;;;;;;;;4933535;28;20449;-58
2022/07/22 12:10:54;;;;;;;6.77;6.20;;;;;;;;;;4928164;28;20460;-58
2022/07/22 12:13:20;;;;;;;6.60;6.10;;;;;;;;;;4941995;28;20526;-61
2022/07/22 12:16:05;;;;;;;6.50;5.70;;;;;;;;;;4918604;28;20505;-58
2022/07/22 12:18:42;;;;;;;7.50;6.80;;;;;;;;;;4918685;28;20454;-59
2022/07/22 12:21:09;;;;;;;6.77;6.27;;;;;;;;;;4955519;28;20565;-59
2022/07/22 12:23:35;;;;;;;7.77;7.07;;;;;;;;;;4927127;28;20501;-57
2022/07/22 12:26:01;;;;;;;6.87;6.27;;;;;;;;;;4948765;28;20489;-58
2022/07/22 12:28:28;;;;;;;7.33;6.73;;;;;;;;;;4926402;28;20199;-59
2022/07/22 12:30:55;;;;;;;8.33;6.43;;;;;;;;;;4943731;28;20443;-59
2022/07/22 12:33:21;;;;;;;6.63;6.10;;;;;;;;;;4952356;28;20438;-58
2022/07/22 12:36:04;;;;;;;8.20;7.60;;;;;;;;;;4947162;28;20461;-58
2022/07/22 12:38:46;;;;;;;7.50;6.90;;;;;;;;;;4938342;28;20446;-59
2022/07/22 12:41:26;;;;;;;7.10;6.50;;;;;;;;;;4931730;28;20504;-57
2022/07/22 12:43:52;;;;;;;7.20;6.50;;;;;;;;;;4946743;28;20438;-58
2022/07/22 12:46:18;;;;;;;6.40;5.90;;;;;;;;;;4935350;28;20434;-57
2022/07/22 12:48:57;;;;;;;6.77;6.17;;;;;;;;;;4928374;28;20501;-58
2022/07/22 12:51:23;;;;;;;8.63;6.67;;;;;;;;;;4952845;28;20562;-58
2022/07/22 12:53:49;;;;;;;8.17;6.47;;;;;;;;;;4930427;28;20545;-58
2022/07/22 12:56:16;;;;;;;7.63;6.90;;;;;;;;;;4940160;28;20225;-58
2022/07/22 12:58:57;;;;;;;7.07;6.37;;;;;;;;;;4951254;28;20464;-56
2022/07/22 13:01:23;;;;;;;7.30;6.60;;;;;;;;;;4931516;28;20487;-57
2022/07/22 13:03:49;;;;;;;6.80;6.30;;;;;;;;;;4946977;28;20466;-58
2022/07/22 13:06:15;;;;;;;7.73;7.03;;;;;;;;;;4946116;28;20451;-59
2022/07/22 13:08:41;;;;;;;6.90;6.40;;;;;;;;;;4931923;28;22165;-58
2022/07/22 13:11:07;;;;;;;7.20;6.60;;;;;;;;;;4950258;28;20191;-59
2022/07/22 13:13:37;;;;;;;7.13;6.47;;;;;;;;;;4951624;28;20447;-58
2022/07/22 13:16:04;;;;;;;7.97;6.40;;;;;;;;;;4960524;28;20478;-58
2022/07/22 13:18:35;;;;;;;7.87;7.17;;;;;;;;;;4950010;28;20482;-59
2022/07/22 13:21:11;;;;;;;6.13;5.63;;;;;;;;;;4945443;28;21170;-58
2022/07/22 13:23:37;;;;;;;7.70;7.07;;;;;;;;;;4952390;28;20582;-58
2022/07/22 13:26:11;;;;;;;6.03;5.60;;;;;;;;;;4949984;28;20179;-59
2022/07/22 13:28:37;;;;;;;6.70;6.10;;;;;;;;;;4947290;28;20208;-58
2022/07/22 13:31:03;;;;;;;7.47;6.53;;;;;;;;;;4947956;28;21028;-58
2022/07/22 13:33:38;;;;;;;6.33;5.80;;;;;;;;;;4938250;28;20672;-59
2022/07/22 13:36:04;;;;;;;7.60;7.00;;;;;;;;;;4951325;28;20502;-58
2022/07/22 13:38:31;;;;;;;7.80;7.13;;;;;;;;;;4946364;28;20482;-58
2022/07/22 13:40:57;;;;;;;7.17;6.53;;;;;;;;;;4957701;28;20486;-57
2022/07/22 13:43:24;;;;;;;7.67;7.07;;;;;;;;;;4936109;28;20435;-57
2022/07/22 13:45:50;;;;;;;7.40;6.80;;;;;;;;;;4943689;28;20501;-57
2022/07/22 13:48:20;;;;;;;7.20;6.63;;;;;;;;;;4952909;28;20443;-57
2022/07/22 13:50:46;;;;;;;7.60;6.97;;;;;;;;;;4952728;28;20474;-59
2022/07/22 13:53:13;;;;;;;8.80;7.90;;;;;;;;;;4945857;28;20453;-58
2022/07/22 13:55:50;;;;;;;7.17;6.67;;;;;;;;;;4947515;28;21204;-58
2022/07/22 13:58:16;;;;;;;7.90;7.30;;;;;;;;;;4933560;28;20509;-58
2022/07/22 14:00:43;;;;;;;7.40;6.80;;;;;;;;;;4945351;28;20548;-60
2022/07/22 14:03:09;;;;;;;7.23;6.63;;;;;;;;;;4944632;28;20870;-58
2022/07/22 14:05:35;;;;;;;8.53;7.90;;;;;;;;;;4946710;28;20454;-59
2022/07/22 14:08:01;;;;;;;7.77;7.13;;;;;;;;;;4949135;28;20932;-57
2022/07/22 14:10:27;;;;;;;7.93;7.10;;;;;;;;;;4943563;28;20187;-60
2022/07/22 14:12:53;;;;;;;8.27;7.63;;;;;;;;;;4954028;28;20459;-57
2022/07/22 14:15:20;;;;;;;7.40;6.90;;;;;;;;;;4940477;28;20493;-57
2022/07/22 14:17:46;;;;;;;8.07;7.37;;;;;;;;;;4946523;28;20781;-58
2022/07/22 14:20:13;;;;;;;8.33;7.63;;;;;;;;;;4943602;28;20717;-58
2022/07/22 14:23:01;;;;;;;6.87;6.37;;;;;;;;;;4947269;28;20514;-59
2022/07/22 14:25:32;;;;;;;8.00;7.40;;;;;;;;;;4935793;28;20478;-56
2022/07/22 14:28:25;;;;;;;7.07;6.57;;;;;;;;;;4942390;28;20423;-57
2022/07/22 14:31:01;;;;;;;9.30;7.27;;;;;;;;;;4942353;28;20537;-58
2022/07/22 14:33:49;;;;;;;7.03;6.40;;;;;;;;;;4935338;28;20452;-57
2022/07/22 14:36:15;;;;;;;7.10;6.50;;;;;;;;;;4945545;28;20436;-58
2022/07/22 14:38:57;;;;;;;7.20;6.60;;;;;;;;;;4950328;28;20446;-58
2022/07/22 14:41:38;;;;;;;8.53;6.40;;;;;;;;;;4936072;28;20971;-58
2022/07/22 14:44:06;;;;;;;7.07;6.47;;;;;;;;;;4940844;28;20519;-57
2022/07/22 14:46:43;;;;;;;7.83;7.20;;;;;;;;;;4941377;28;21060;-58
2022/07/22 14:49:10;;;;;;;8.13;6.63;;;;;;;;;;4925042;28;20538;-57
2022/07/22 14:52:01;;;;;;;7.40;6.80;;;;;;;;;;4948159;28;20494;-59
2022/07/22 14:54:37;;;;;;;7.37;6.80;;;;;;;;;;4931970;28;20458;-58